Time;durP1;ratioP1;P1;durP2;ratioP2;P2;SDS_P1;SDS_P2;PMS_P1;PMS_P2;Temp;Humidity;BMP_temperature;BMP_pressure;BME280_temperature;BME280_humidity;BME280_pressure;Samples;Min_cycle;Max_cycle;Signal;HPM_P1;HPM_P2
2022/11/13 00:00:37;;;;;;;1.80;1.70;;;4.20;99.30;3.30;96906.00;;;;5096120;28;20228;-60
2022/11/13 00:03:03;;;;;;;1.10;1.10;;;4.20;99.50;3.30;96904.00;;;;5096407;28;20213;-62
2022/11/13 00:05:30;;;;;;;1.87;1.77;;;4.20;99.30;3.20;96895.00;;;;5096269;28;20222;-61
2022/11/13 00:07:57;;;;;;;1.47;1.37;;;4.10;99.20;3.20;96903.00;;;;5095914;28;20206;-60
2022/11/13 00:10:23;;;;;;;1.90;1.80;;;4.10;99.90;3.30;96904.00;;;;5096030;28;20226;-62
2022/11/13 00:12:49;;;;;;;2.37;1.33;;;4.20;99.90;3.30;96902.00;;;;5095176;28;20539;-62
2022/11/13 00:15:16;;;;;;;1.13;1.13;;;4.20;99.90;3.30;96887.00;;;;5095103;28;20202;-61
2022/11/13 00:17:42;;;;;;;1.03;1.03;;;4.30;99.90;3.30;96890.00;;;;5096138;28;20667;-59
2022/11/13 00:20:11;;;;;;;1.40;1.40;;;4.30;99.90;3.30;96891.00;;;;5095914;28;20712;-59
2022/11/13 00:22:39;;;;;;;1.77;1.67;;;4.20;99.90;3.30;96877.00;;;;5095879;28;20512;-59
2022/11/13 00:25:06;;;;;;;2.57;2.37;;;4.20;99.90;3.30;96883.00;;;;5095789;28;20662;-59
2022/11/13 00:27:32;;;;;;;1.97;1.83;;;4.20;99.90;3.30;96884.00;;;;5096486;28;20230;-61
2022/11/13 00:29:58;;;;;;;1.93;1.83;;;4.30;99.90;3.30;96889.00;;;;5096620;28;20199;-59
2022/11/13 00:32:28;;;;;;;1.30;1.20;;;4.20;99.90;3.30;96886.00;;;;5095729;28;20222;-58
2022/11/13 00:34:54;;;;;;;4.60;1.30;;;4.20;99.90;3.30;96875.00;;;;5095703;28;20221;-62
2022/11/13 00:37:23;;;;;;;2.07;1.90;;;4.30;99.90;3.30;96875.00;;;;5095940;28;20199;-59
2022/11/13 00:39:50;;;;;;;2.27;2.00;;;4.30;99.90;3.30;96869.00;;;;5095578;28;20267;-59
2022/11/13 00:42:17;;;;;;;1.80;1.40;;;4.30;99.90;3.30;96871.00;;;;5095610;28;20214;-59
2022/11/13 00:44:45;;;;;;;1.47;1.40;;;4.20;99.90;3.30;96866.00;;;;5095405;28;20309;-61
2022/11/13 00:47:12;;;;;;;1.10;1.10;;;4.20;99.90;3.40;96866.00;;;;5094605;28;20224;-59
2022/11/13 00:49:38;;;;;;;1.17;1.17;;;4.30;99.90;3.40;96865.00;;;;5095355;28;20233;-59
2022/11/13 00:52:07;;;;;;;1.57;1.50;;;4.30;99.90;3.40;96869.00;;;;5095538;28;20229;-59
2022/11/13 00:54:36;;;;;;;1.40;1.30;;;4.30;99.90;3.30;96854.00;;;;5077493;28;20207;-60
2022/11/13 00:57:03;;;;;;;1.00;1.00;;;4.30;99.90;3.10;96859.00;;;;5095330;28;20191;-59
2022/11/13 00:59:29;;;;;;;1.33;1.23;;;4.10;99.60;3.20;96857.00;;;;5095284;28;20191;-59
2022/11/13 01:01:56;;;;;;;0.90;0.90;;;4.10;99.90;2.90;96852.00;;;;5094150;28;20317;-61
2022/11/13 01:04:22;;;;;;;1.70;1.37;;;4.00;99.30;2.90;96847.00;;;;5095417;28;20207;-65
2022/11/13 01:06:48;;;;;;;1.27;1.10;;;3.90;99.90;3.00;96852.00;;;;5095443;28;20222;-60
2022/11/13 01:09:15;;;;;;;1.70;1.50;;;3.90;99.90;2.90;96849.00;;;;5095077;28;20264;-59
2022/11/13 01:11:41;;;;;;;0.87;0.87;;;3.80;99.80;3.00;96848.00;;;;5095183;28;20583;-61
2022/11/13 01:14:09;;;;;;;2.90;1.80;;;3.90;99.90;3.00;96841.00;;;;5095148;28;20194;-60
2022/11/13 01:16:35;;;;;;;0.93;0.93;;;3.90;99.90;2.90;96836.00;;;;5095069;28;20202;-61
2022/11/13 01:19:03;;;;;;;0.83;0.83;;;3.90;99.90;3.00;96835.00;;;;5094097;28;20218;-59
2022/11/13 01:21:30;;;;;;;1.20;1.13;;;3.90;99.50;3.00;96822.00;;;;5094880;28;20716;-58
2022/11/13 01:23:56;;;;;;;1.10;1.10;;;3.90;99.90;3.00;96829.00;;;;5094821;28;20218;-59
2022/11/13 01:26:26;;;;;;;0.87;0.87;;;4.00;99.90;3.00;96823.00;;;;5077248;28;20742;-60
2022/11/13 01:28:54;;;;;;;2.10;2.00;;;3.90;99.90;3.00;96817.00;;;;5094969;28;20218;-58
2022/11/13 01:31:24;;;;;;;0.73;0.73;;;3.90;99.90;2.90;96816.00;;;;5094942;28;20191;-63
2022/11/13 01:33:50;;;;;;;0.80;0.80;;;3.80;99.60;2.90;96819.00;;;;5094928;28;20190;-62
2022/11/13 01:36:20;;;;;;;0.80;0.80;;;3.90;99.90;2.90;96803.00;;;;5094864;28;20205;-58
2022/11/13 01:38:47;;;;;;;1.27;1.27;;;3.90;99.90;3.00;96806.00;;;;5094799;28;20273;-58
2022/11/13 01:41:19;;;;;;;1.23;1.23;;;3.90;99.90;2.80;96808.00;;;;5076862;28;20309;-59
2022/11/13 01:43:46;;;;;;;0.90;0.90;;;3.90;99.70;2.70;96802.00;;;;5077234;28;20632;-58
2022/11/13 01:46:19;;;;;;;1.40;1.30;;;3.70;99.60;2.60;96802.00;;;;5094613;28;20229;-58
2022/11/13 01:48:51;;;;;;;0.87;0.87;;;3.60;99.50;2.50;96788.00;;;;5093803;28;20210;-59
2022/11/13 01:51:28;;;;;;;1.10;1.10;;;3.50;99.70;2.40;96788.00;;;;5094602;28;20230;-59
2022/11/13 01:53:57;;;;;;;1.70;1.60;;;3.50;99.90;2.50;96794.00;;;;5094760;28;20198;-59
2022/11/13 01:56:24;;;;;;;2.67;1.50;;;3.50;99.90;2.60;96792.00;;;;5094648;28;20198;-59
2022/11/13 01:58:57;;;;;;;2.50;2.33;;;3.50;99.90;2.60;96788.00;;;;5094413;28;20248;-59
2022/11/13 02:01:24;;;;;;;2.37;2.17;;;3.50;99.90;2.50;96787.00;;;;5094325;28;20249;-58
2022/11/13 02:03:51;;;;;;;1.93;1.83;;;3.50;99.90;2.50;96783.00;;;;5094329;28;20191;-59
2022/11/13 02:06:20;;;;;;;1.53;1.43;;;3.50;99.90;2.50;96780.00;;;;5094577;28;20306;-58
2022/11/13 02:08:50;;;;;;;2.03;1.83;;;3.50;99.90;2.50;96770.00;;;;5093284;28;20222;-59
2022/11/13 02:11:17;;;;;;;2.03;1.93;;;3.40;98.90;2.40;96761.00;;;;5094177;28;20504;-58
2022/11/13 02:13:44;;;;;;;1.83;1.73;;;3.40;99.50;2.40;96770.00;;;;5094077;28;20522;-58
2022/11/13 02:16:12;;;;;;;1.73;1.63;;;3.40;99.20;2.30;96763.00;;;;5094404;28;20217;-58
2022/11/13 02:18:40;;;;;;;1.83;1.73;;;3.30;99.20;2.20;96768.00;;;;5094133;28;20263;-60
2022/11/13 02:21:25;;;;;;;1.77;1.67;;;3.10;98.00;2.00;96766.00;;;;5094061;28;20225;-58
2022/11/13 02:24:02;;;;;;;1.10;1.10;;;3.00;98.40;1.90;96716.00;;;;5094159;28;20201;-58
2022/11/13 02:26:32;;;;;;;1.30;1.27;;;3.00;98.80;1.90;96758.00;;;;5094057;28;20198;-58
2022/11/13 02:28:58;;;;;;;1.50;1.40;;;2.90;98.70;1.90;96740.00;;;;5094133;28;20206;-58
2022/11/13 02:31:24;;;;;;;1.30;1.30;;;2.90;99.20;2.00;96745.00;;;;5092768;28;20671;-58
2022/11/13 02:33:51;;;;;;;0.87;0.87;;;3.00;99.40;2.10;96750.00;;;;5093019;28;20202;-61
2022/11/13 02:36:21;;;;;;;0.93;0.93;;;3.10;99.60;2.20;96746.00;;;;5094048;28;20222;-58
2022/11/13 02:38:49;;;;;;;1.07;1.07;;;3.10;99.60;2.10;96733.00;;;;5094012;28;20210;-58
2022/11/13 02:41:16;;;;;;;1.37;1.30;;;3.20;99.60;2.30;96742.00;;;;5093691;28;20520;-58
2022/11/13 02:43:43;;;;;;;0.87;0.87;;;3.30;99.50;2.30;96735.00;;;;5093866;28;20210;-59
2022/11/13 02:46:09;;;;;;;1.43;1.13;;;3.20;99.30;2.20;96736.00;;;;5093810;28;20623;-59
2022/11/13 02:48:36;;;;;;;0.80;0.80;;;3.20;99.10;2.30;96733.00;;;;5092630;28;20681;-58
2022/11/13 02:51:03;;;;;;;1.20;1.20;;;3.20;99.40;2.30;96729.00;;;;5093672;28;20190;-59
2022/11/13 02:53:32;;;;;;;0.80;0.80;;;3.20;99.50;2.30;96734.00;;;;5093636;28;20218;-59
2022/11/13 02:55:59;;;;;;;1.47;1.43;;;3.30;99.70;2.20;96729.00;;;;5093674;28;20210;-58
2022/11/13 02:58:25;;;;;;;1.00;1.00;;;3.20;99.70;2.20;96726.00;;;;5093524;28;20202;-58
2022/11/13 03:00:52;;;;;;;0.80;0.80;;;3.20;99.90;2.20;96734.00;;;;5093651;28;20218;-61
2022/11/13 03:03:18;;;;;;;2.23;2.07;;;3.20;99.90;2.30;96725.00;;;;5076325;28;20202;-58
2022/11/13 03:05:48;;;;;;;1.60;1.50;;;3.20;99.90;2.20;96724.00;;;;5093815;28;20286;-59
2022/11/13 03:08:15;;;;;;;1.20;1.20;;;3.20;99.90;2.20;96710.00;;;;5093712;28;20202;-58
2022/11/13 03:10:42;;;;;;;1.93;1.17;;;3.20;99.70;2.20;96712.00;;;;5093335;28;20549;-57
2022/11/13 03:13:08;;;;;;;1.50;1.47;;;3.20;99.70;2.20;96714.00;;;;5093315;28;20258;-58
2022/11/13 03:15:34;;;;;;;1.70;1.50;;;3.10;99.90;2.10;96701.00;;;;5092255;28;20269;-59
2022/11/13 03:18:03;;;;;;;1.43;1.40;;;3.10;99.90;2.10;96688.00;;;;5093516;28;20194;-58
2022/11/13 03:20:30;;;;;;;1.53;1.47;;;3.10;99.70;2.10;96704.00;;;;5093155;28;20283;-59
2022/11/13 03:22:57;;;;;;;1.90;1.80;;;3.10;99.80;2.10;96701.00;;;;5093353;28;20191;-58
2022/11/13 03:25:23;;;;;;;2.10;1.97;;;3.10;99.60;1.90;96693.00;;;;5093267;28;20263;-58
2022/11/13 03:27:50;;;;;;;1.10;1.10;;;;;1.80;96714.00;;;;5093161;28;20602;-61
2022/11/13 03:30:18;;;;;;;1.10;1.10;;;2.90;98.20;1.80;96699.00;;;;5075367;28;20599;-60
2022/11/13 03:32:44;;;;;;;1.50;1.40;;;2.80;98.90;1.80;96701.00;;;;5093138;28;20222;-60
2022/11/13 03:35:11;;;;;;;1.60;1.50;;;2.80;99.70;1.70;96705.00;;;;5092232;28;20210;-59
2022/11/13 03:37:40;;;;;;;0.93;0.93;;;2.70;99.10;1.80;96703.00;;;;5093162;28;20202;-58
2022/11/13 03:40:08;;;;;;;1.23;1.23;;;2.80;99.40;1.80;96704.00;;;;5092939;28;20512;-58
2022/11/13 03:42:35;;;;;;;4.27;1.57;;;2.80;99.20;1.80;96708.00;;;;5095768;28;20193;-58
2022/11/13 03:45:01;;;;;;;2.70;1.50;;;2.80;99.20;1.70;96706.00;;;;5096624;28;20249;-58
2022/11/13 03:47:30;;;;;;;0.80;0.80;;;2.70;99.00;1.60;96707.00;;;;5096417;28;20221;-58
2022/11/13 03:49:56;;;;;;;1.10;1.10;;;2.70;98.60;1.50;96711.00;;;;5096340;28;20225;-58
2022/11/13 03:52:23;;;;;;;1.30;1.20;;;2.50;98.50;1.50;96698.00;;;;5095674;28;20735;-58
2022/11/13 03:54:50;;;;;;;1.63;1.53;;;2.60;98.80;1.60;96703.00;;;;5096643;28;20237;-60
2022/11/13 03:57:16;;;;;;;1.20;1.20;;;2.60;99.00;1.50;96700.00;;;;5096349;28;20195;-58
2022/11/13 03:59:42;;;;;;;0.80;0.80;;;2.50;98.60;1.40;96693.00;;;;5095518;28;20202;-60
2022/11/13 04:02:09;;;;;;;1.13;1.10;;;2.40;98.70;1.50;96691.00;;;;5096390;28;20224;-58
2022/11/13 04:04:35;;;;;;;0.80;0.80;;;2.50;99.10;1.50;96692.00;;;;5096209;28;20205;-58
2022/11/13 04:07:02;;;;;;;1.63;1.57;;;2.50;99.10;1.50;96679.00;;;;5096040;28;20665;-58
2022/11/13 04:09:32;;;;;;;7.93;1.30;;;2.50;98.90;1.50;96681.00;;;;5095962;28;20190;-58
2022/11/13 04:11:58;;;;;;;0.80;0.80;;;2.50;98.90;1.40;96684.00;;;;5095870;28;20226;-57
2022/11/13 04:14:24;;;;;;;1.17;1.17;;;2.40;98.60;1.40;96681.00;;;;5095045;28;20205;-58
2022/11/13 04:16:53;;;;;;;1.37;1.37;;;2.40;98.50;1.30;96669.00;;;;5096293;28;20213;-58
2022/11/13 04:19:19;;;;;;;1.63;1.53;;;2.40;98.30;1.20;96672.00;;;;5095870;28;20215;-58
2022/11/13 04:21:45;;;;;;;2.77;2.57;;;2.30;98.40;1.30;96669.00;;;;5095722;28;20221;-58
2022/11/13 04:24:14;;;;;;;1.53;1.43;;;2.30;98.70;1.20;96662.00;;;;5095749;28;20224;-59
2022/11/13 04:26:43;;;;;;;1.30;1.30;;;2.30;98.80;1.30;96670.00;;;;5095633;28;20210;-58
2022/11/13 04:29:10;;;;;;;2.70;2.03;;;2.30;98.80;1.30;96671.00;;;;5095607;28;20248;-58
2022/11/13 04:31:36;;;;;;;2.07;1.97;;;2.40;98.60;1.30;96669.00;;;;5094646;28;20279;-58
2022/11/13 04:34:02;;;;;;;1.70;1.67;;;2.30;98.30;1.20;96662.00;;;;5095491;28;20241;-58
2022/11/13 04:36:29;;;;;;;1.20;1.20;;;2.30;98.20;1.20;96667.00;;;;5095553;28;20178;-58
2022/11/13 04:38:55;;;;;;;2.50;1.63;;;2.30;98.10;1.20;96661.00;;;;5095682;28;20204;-58
2022/11/13 04:44:07;;;;;;;1.37;1.37;;;2.20;97.70;1.20;96658.00;;;;5095519;28;20199;-58
2022/11/13 04:46:33;;;;;;;1.57;1.47;;;2.20;97.90;1.20;96653.00;;;;5095409;28;20225;-60
2022/11/13 04:49:00;;;;;;;1.20;1.20;;;2.30;98.00;1.20;96654.00;;;;5094417;28;20213;-57
2022/11/13 04:51:26;;;;;;;1.50;1.40;;;2.30;97.70;1.20;96649.00;;;;5095274;28;20218;-58
2022/11/13 04:53:52;;;;;;;2.00;1.90;;;2.20;98.30;1.20;96640.00;;;;5094202;28;20640;-58
2022/11/13 04:56:19;;;;;;;1.20;1.20;;;2.20;97.50;1.10;96641.00;;;;5094263;28;20234;-62
2022/11/13 04:58:45;;;;;;;0.80;0.80;;;2.20;97.70;1.10;96639.00;;;;5095429;28;20516;-60
2022/11/13 05:01:12;;;;;;;1.67;1.57;;;2.20;98.60;1.10;96634.00;;;;5095168;28;20275;-58
2022/11/13 05:03:39;;;;;;;1.20;1.20;;;2.20;97.90;1.10;96640.00;;;;5095386;28;20255;-57
2022/11/13 05:06:08;;;;;;;0.97;0.97;;;2.10;97.90;1.20;96639.00;;;;5095138;28;20198;-57
2022/11/13 05:08:35;;;;;;;2.10;1.90;;;2.10;98.40;1.10;96628.00;;;;5094261;28;20279;-58
2022/11/13 05:11:02;;;;;;;6.87;2.67;;;2.10;98.20;1.20;96633.00;;;;5095054;28;20194;-60
2022/11/13 05:13:31;;;;;;;1.30;1.30;;;2.20;98.50;1.10;96636.00;;;;5095021;28;20228;-58
2022/11/13 05:16:02;;;;;;;1.13;1.13;;;2.10;98.10;0.90;96628.00;;;;5095000;28;20218;-57
2022/11/13 05:18:29;;;;;;;1.63;1.53;;;2.00;97.70;1.00;96632.00;;;;5095092;28;20251;-58
2022/11/13 05:20:58;;;;;;;1.50;1.40;;;2.00;98.40;1.10;96628.00;;;;5094992;28;20229;-57
2022/11/13 05:23:25;;;;;;;2.70;1.87;;;2.10;98.80;1.00;96611.00;;;;5094958;28;20186;-57
2022/11/13 05:25:52;;;;;;;0.80;0.80;;;2.00;97.80;0.90;96632.00;;;;5094735;28;20240;-58
2022/11/13 05:28:19;;;;;;;1.20;1.20;;;1.90;98.90;0.90;96629.00;;;;5094735;28;20210;-59
2022/11/13 05:30:45;;;;;;;1.43;1.33;;;1.90;98.40;0.90;96635.00;;;;5094706;28;20654;-59
2022/11/13 05:33:11;;;;;;;1.13;1.13;;;1.90;98.90;1.00;96627.00;;;;5094723;28;20209;-66
2022/11/13 05:35:41;;;;;;;1.70;1.60;;;2.00;98.90;0.90;96614.00;;;;5094823;28;20209;-58
2022/11/13 05:38:07;;;;;;;1.30;1.20;;;1.90;97.50;0.80;96625.00;;;;5094846;28;20216;-58
2022/11/13 05:40:34;;;;;;;1.00;1.00;;;1.70;99.90;1.00;96613.00;;;;5094587;28;20217;-59
2022/11/13 05:43:00;;;;;;;1.50;1.40;;;1.90;98.80;1.00;96614.00;;;;5094438;28;20305;-58
2022/11/13 05:45:26;;;;;;;2.47;2.00;;;2.00;98.80;1.00;96614.00;;;;5076798;28;20216;-58
2022/11/13 05:47:56;;;;;;;1.20;1.20;;;2.00;98.70;0.90;96618.00;;;;5094454;28;20309;-57
2022/11/13 05:50:24;;;;;;;1.33;1.33;;;2.10;99.00;1.10;96617.00;;;;5094454;28;20676;-58
2022/11/13 05:52:51;;;;;;;1.30;1.30;;;2.10;98.80;1.10;96599.00;;;;5076582;28;20229;-59
2022/11/13 05:55:18;;;;;;;4.20;1.80;;;2.10;98.70;1.10;96609.00;;;;5094649;28;20182;-60
2022/11/13 05:57:44;;;;;;;4.27;2.20;;;2.10;98.30;1.10;96596.00;;;;5094364;28;20206;-60
2022/11/13 06:00:12;;;;;;;0.90;0.90;;;;;1.10;96597.00;;;;5094311;28;20197;-60
2022/11/13 06:02:39;;;;;;;1.57;1.47;;;;;1.10;96596.00;;;;5094277;28;20494;-58
2022/11/13 06:05:06;;;;;;;1.50;1.43;;;2.20;98.60;1.10;96596.00;;;;5093957;28;20187;-58
2022/11/13 06:07:33;;;;;;;1.80;1.70;;;2.20;99.20;1.10;96592.00;;;;5094418;28;20205;-61
2022/11/13 06:10:00;;;;;;;1.17;1.17;;;2.10;99.20;1.00;96587.00;;;;5093096;28;20237;-58
2022/11/13 06:12:26;;;;;;;1.13;1.13;;;2.10;99.10;0.90;96584.00;;;;5094136;28;20263;-60
2022/11/13 06:14:55;;;;;;;2.20;1.63;;;2.00;99.20;0.80;96576.00;;;;5076218;28;20324;-58
2022/11/13 06:17:21;;;;;;;1.10;1.10;;;;;0.80;96579.00;;;;5094005;28;20218;-58
2022/11/13 06:19:48;;;;;;;1.93;1.83;;;;;0.80;96579.00;;;;5093998;28;20232;-61
2022/11/13 06:22:15;;;;;;;1.63;1.53;;;1.90;96.90;0.80;96587.00;;;;5093934;28;20225;-60
2022/11/13 06:24:41;;;;;;;2.07;1.60;;;1.90;97.60;0.80;96581.00;;;;5093863;28;20221;-60
2022/11/13 06:27:11;;;;;;;1.10;1.10;;;1.90;97.80;0.80;96585.00;;;;5092899;28;20204;-58
2022/11/13 06:29:37;;;;;;;0.77;0.77;;;1.90;99.90;0.90;96572.00;;;;5093046;28;20237;-58
2022/11/13 06:32:04;;;;;;;1.67;1.57;;;1.90;97.90;0.70;96569.00;;;;5093919;28;20202;-58
2022/11/13 06:34:30;;;;;;;1.63;1.53;;;1.90;97.70;0.80;96574.00;;;;5093692;28;20231;-58
2022/11/13 06:36:57;;;;;;;1.33;1.17;;;1.80;97.20;0.80;96565.00;;;;5093823;28;20209;-58
2022/11/13 06:39:23;;;;;;;1.80;1.67;;;1.90;97.60;0.80;96571.00;;;;5093630;28;20197;-59
2022/11/13 06:41:49;;;;;;;1.97;1.60;;;1.80;97.30;0.70;96581.00;;;;5093728;28;20232;-59
2022/11/13 06:44:16;;;;;;;8.43;2.60;;;1.80;97.20;0.70;96570.00;;;;5076030;28;20202;-58
2022/11/13 06:46:43;;;;;;;2.00;1.87;;;1.70;97.50;0.70;96578.00;;;;5093802;28;20205;-59
2022/11/13 06:49:11;;;;;;;1.57;1.47;;;1.80;97.50;0.70;96574.00;;;;5093629;28;20254;-59
2022/11/13 06:51:38;;;;;;;2.03;1.93;;;1.70;97.60;0.80;96565.00;;;;5093771;28;20209;-59
2022/11/13 06:54:05;;;;;;;1.77;1.67;;;1.80;97.70;0.80;96572.00;;;;5093627;28;20201;-57
2022/11/13 06:56:31;;;;;;;1.00;1.00;;;1.80;97.50;0.90;96574.00;;;;5093654;28;20614;-58
2022/11/13 06:58:57;;;;;;;1.70;1.50;;;1.90;97.50;0.80;96564.00;;;;5093506;28;20206;-59
2022/11/13 07:01:26;;;;;;;1.60;1.50;;;1.80;97.20;0.80;96559.00;;;;5093388;28;20229;-64
2022/11/13 07:03:55;;;;;;;2.07;1.90;;;1.80;97.10;1.00;96548.00;;;;5093599;28;20202;-58
2022/11/13 07:06:23;;;;;;;3.17;2.90;;;1.80;97.30;0.90;96561.00;;;;5093550;28;20258;-60
2022/11/13 07:08:50;;;;;;;2.80;2.60;;;1.90;96.80;0.90;96557.00;;;;5093433;28;20217;-58
2022/11/13 07:11:19;;;;;;;1.83;1.73;;;1.90;96.50;0.80;96548.00;;;;5093357;28;20257;-58
2022/11/13 07:13:46;;;;;;;1.77;1.67;;;1.90;96.60;0.80;96510.00;;;;5093433;28;20205;-59
2022/11/13 07:16:14;;;;;;;1.30;1.30;;;1.80;96.40;0.90;96558.00;;;;5093390;28;20290;-58
2022/11/13 07:18:41;;;;;;;1.40;1.30;;;1.90;96.60;1.00;96547.00;;;;5096845;28;20239;-58
2022/11/13 07:21:11;;;;;;;3.27;2.03;;;2.00;96.50;1.00;96550.00;;;;5096530;28;20233;-58
2022/11/13 07:23:41;;;;;;;1.80;1.50;;;2.10;96.50;1.20;96545.00;;;;5095741;28;20685;-58
2022/11/13 07:26:09;;;;;;;1.63;1.53;;;2.20;95.50;1.30;96556.00;;;;5096568;28;20229;-58
2022/11/13 07:28:36;;;;;;;1.90;1.80;;;2.20;96.10;1.30;96530.00;;;;5096653;28;20503;-58
2022/11/13 07:31:03;;;;;;;2.03;1.90;;;2.30;95.90;1.40;96533.00;;;;5096522;28;20248;-60
2022/11/13 07:33:30;;;;;;;2.53;2.33;;;2.30;95.60;1.40;96531.00;;;;5096765;28;20200;-59
2022/11/13 07:35:58;;;;;;;1.60;1.47;;;2.40;95.50;1.40;96531.00;;;;5078905;28;20231;-59
2022/11/13 07:38:24;;;;;;;2.27;2.07;;;2.40;95.60;1.40;96530.00;;;;5096570;28;20270;-59
2022/11/13 07:40:51;;;;;;;1.77;1.67;;;2.30;95.20;1.50;96517.00;;;;5095332;28;20242;-57
2022/11/13 07:43:17;;;;;;;2.07;1.97;;;2.40;95.40;1.50;96528.00;;;;5096824;28;20180;-58
2022/11/13 07:45:44;;;;;;;1.27;1.27;;;2.40;95.40;1.50;96520.00;;;;5078871;28;20214;-58
2022/11/13 07:48:11;;;;;;;2.40;1.73;;;;;1.60;96519.00;;;;5096596;28;20201;-58
2022/11/13 07:50:38;;;;;;;1.70;1.60;;;;;1.60;96523.00;;;;5096249;28;20205;-58
2022/11/13 07:53:09;;;;;;;1.70;1.50;;;2.50;94.30;1.70;96517.00;;;;5096242;28;20281;-58
2022/11/13 07:55:36;;;;;;;1.70;1.60;;;2.50;94.90;1.70;96525.00;;;;5096266;28;20266;-58
2022/11/13 07:58:05;;;;;;;1.27;1.27;;;2.60;94.90;1.70;96518.00;;;;5096308;28;20204;-58
2022/11/13 08:00:34;;;;;;;1.53;1.43;;;2.60;94.50;1.70;96486.00;;;;5096181;28;20205;-58
2022/11/13 08:03:05;;;;;;;1.77;1.67;;;2.70;94.60;1.70;96511.00;;;;5096241;28;20194;-59
2022/11/13 08:05:31;;;;;;;1.67;1.57;;;2.60;94.60;1.80;96507.00;;;;5096247;28;20210;-58
2022/11/13 08:07:58;;;;;;;1.87;1.77;;;2.70;94.70;1.80;96510.00;;;;5096138;28;20543;-59
2022/11/13 08:10:25;;;;;;;1.50;1.40;;;2.70;94.50;1.80;96511.00;;;;5096060;28;20194;-59
2022/11/13 08:12:59;;;;;;;0.80;0.80;;;2.70;94.80;1.80;96514.00;;;;5095079;28;20237;-58
2022/11/13 08:15:26;;;;;;;0.83;0.83;;;2.70;95.50;2.00;96503.00;;;;5096032;28;20205;-58
2022/11/13 08:17:56;;;;;;;1.00;1.00;;;2.80;96.10;2.20;96513.00;;;;5095918;28;20622;-58
2022/11/13 08:20:23;;;;;;;0.87;0.87;;;3.00;96.30;3.00;96514.00;;;;5095901;28;20199;-58
2022/11/13 08:22:50;;;;;;;1.77;1.67;;;3.90;99.90;3.20;96502.00;;;;5095901;28;20202;-58
2022/11/13 08:25:18;;;;;;;1.17;1.17;;;4.10;99.90;3.50;96511.00;;;;5095930;28;20197;-58
2022/11/13 08:27:45;;;;;;;2.57;2.37;;;4.30;99.10;3.50;96510.00;;;;5095437;28;20228;-59
2022/11/13 08:30:13;;;;;;;2.60;2.37;;;4.50;98.60;3.60;96501.00;;;;5095710;28;20237;-59
2022/11/13 08:32:42;;;;;;;1.73;1.63;;;4.50;97.50;3.70;96495.00;;;;5095668;28;20268;-58
2022/11/13 08:35:09;;;;;;;1.57;1.53;;;4.50;97.90;3.70;96492.00;;;;5095604;28;20635;-59
2022/11/13 08:37:35;;;;;;;1.47;1.43;;;4.60;97.00;3.60;96476.00;;;;5095496;28;20662;-59
2022/11/13 08:40:02;;;;;;;1.97;1.87;;;4.50;95.70;3.60;96473.00;;;;5095631;28;20217;-58
2022/11/13 08:42:29;;;;;;;1.17;1.17;;;4.50;95.30;3.60;96477.00;;;;5095598;28;20234;-59
2022/11/13 08:44:56;;;;;;;1.27;1.23;;;4.50;94.70;3.60;96475.00;;;;5094682;28;20539;-59
2022/11/13 08:47:22;;;;;;;1.50;1.40;;;4.40;94.00;3.50;96464.00;;;;5094569;28;20546;-61
2022/11/13 08:49:49;;;;;;;4.17;1.30;;;4.40;94.60;3.50;96464.00;;;;5095551;28;20234;-58
2022/11/13 08:52:16;;;;;;;1.53;1.43;;;4.30;94.80;3.70;96464.00;;;;5094476;28;20318;-61
2022/11/13 08:54:42;;;;;;;2.37;2.17;;;4.40;95.40;3.70;96459.00;;;;5095387;28;20206;-59
2022/11/13 08:57:11;;;;;;;1.40;1.30;;;4.50;94.90;3.80;96466.00;;;;5094293;28;20258;-59
2022/11/13 08:59:38;;;;;;;2.00;1.90;;;4.60;95.10;3.90;96460.00;;;;5095180;28;20665;-59
2022/11/13 09:02:05;;;;;;;1.10;1.10;;;4.70;95.20;4.00;96453.00;;;;5095050;28;20211;-59
2022/11/13 09:04:31;;;;;;;1.00;1.00;;;4.80;95.30;4.00;96461.00;;;;5095197;28;20208;-59
2022/11/13 09:06:58;;;;;;;2.20;1.90;;;4.80;94.60;4.20;96456.00;;;;5095243;28;20195;-59
2022/11/13 09:09:24;;;;;;;1.30;1.30;;;5.00;94.90;4.40;96458.00;;;;5095121;28;20252;-58
2022/11/13 09:11:51;;;;;;;1.37;1.27;;;;;4.60;96464.00;;;;5095010;28;20201;-58
2022/11/13 09:14:18;;;;;;;2.23;1.87;;;;;4.80;96460.00;;;;5095158;28;20616;-59
2022/11/13 09:16:45;;;;;;;1.60;1.50;;;;;4.90;96456.00;;;;5095028;28;20194;-59
2022/11/13 09:19:12;;;;;;;1.60;1.50;;;5.80;95.10;5.20;96452.00;;;;5094969;28;20230;-59
2022/11/13 09:21:38;;;;;;;1.87;1.77;;;5.90;94.80;5.00;96453.00;;;;5094925;28;20222;-58
2022/11/13 09:24:05;;;;;;;1.30;1.27;;;5.80;95.30;5.10;96454.00;;;;5095044;28;20694;-59
2022/11/13 09:26:34;;;;;;;2.63;2.40;;;5.90;95.80;5.40;96458.00;;;;5077024;28;20667;-59
2022/11/13 09:29:00;;;;;;;1.27;1.27;;;6.10;96.50;5.70;96456.00;;;;5094863;28;20218;-61
2022/11/13 09:31:26;;;;;;;1.57;1.47;;;6.30;96.40;5.80;96453.00;;;;5094890;28;20235;-59
2022/11/13 09:33:53;;;;;;;1.70;1.60;;;6.50;96.10;5.90;96447.00;;;;5094735;28;20222;-59
2022/11/13 09:36:20;;;;;;;1.30;1.20;;;6.60;95.10;6.10;96445.00;;;;5094697;28;20201;-59
2022/11/13 09:38:46;;;;;;;1.60;1.50;;;6.70;95.10;6.20;96449.00;;;;5094270;28;20297;-59
2022/11/13 09:41:19;;;;;;;1.07;1.07;;;6.90;95.00;6.30;96443.00;;;;5094585;28;20225;-61
2022/11/13 09:43:50;;;;;;;1.10;1.10;;;7.00;94.80;6.50;96443.00;;;;5094788;28;20224;-59
2022/11/13 09:46:29;;;;;;;1.00;1.00;;;7.10;95.10;6.50;96437.00;;;;5094642;28;20271;-61
2022/11/13 09:49:03;;;;;;;1.50;1.40;;;7.20;94.00;6.80;96411.00;;;;5094518;28;20225;-59
2022/11/13 09:51:37;;;;;;;1.73;1.63;;;7.40;94.60;6.80;96421.00;;;;5076966;28;20187;-59
2022/11/13 09:54:06;;;;;;;1.43;1.37;;;7.40;94.40;6.90;96430.00;;;;5094640;28;20284;-59
2022/11/13 09:56:38;;;;;;;1.10;1.10;;;7.60;94.60;6.90;96438.00;;;;5094472;28;20218;-59
2022/11/13 09:59:19;;;;;;;1.23;1.23;;;7.50;95.30;7.00;96442.00;;;;5094760;28;20221;-59
2022/11/13 10:01:59;;;;;;;1.27;1.17;;;7.60;93.90;6.90;96439.00;;;;5094289;28;20232;-59
2022/11/13 10:04:48;;;;;;;2.90;1.77;;;7.60;93.40;7.10;96428.00;;;;5094024;28;20223;-59
2022/11/13 10:07:35;;;;;;;1.83;1.70;;;7.80;93.60;7.30;96421.00;;;;5094604;28;20191;-59
2022/11/13 10:10:33;;;;;;;1.53;1.43;;;7.90;92.80;7.50;96429.00;;;;5094366;28;20214;-59
2022/11/13 10:13:01;;;;;;;0.80;0.80;;;8.10;93.30;7.60;96435.00;;;;5094293;28;20209;-59
2022/11/13 10:15:28;;;;;;;1.00;1.00;;;8.20;93.90;7.70;96442.00;;;;5094121;28;20214;-59
2022/11/13 10:18:01;;;;;;;1.70;1.63;;;8.30;94.20;7.80;96427.00;;;;5093994;28;20585;-61
2022/11/13 10:20:35;;;;;;;0.80;0.80;;;8.40;93.50;8.10;96429.00;;;;5094104;28;20209;-58
2022/11/13 10:23:11;;;;;;;0.80;0.80;;;8.60;91.60;8.20;96428.00;;;;5094025;28;20182;-59
2022/11/13 10:25:40;;;;;;;1.17;1.07;;;;;8.40;96430.00;;;;5094092;28;20205;-58
2022/11/13 10:28:15;;;;;;;1.57;1.47;;;9.00;80.50;8.40;96424.00;;;;5076175;28;20301;-59
2022/11/13 10:30:42;;;;;;;2.43;1.63;;;9.00;81.30;8.70;96430.00;;;;5093994;28;20194;-63
2022/11/13 10:33:14;;;;;;;0.80;0.80;;;;;8.80;96424.00;;;;5094201;28;20250;-59
2022/11/13 10:35:51;;;;;;;1.60;1.50;;;;;9.00;96417.00;;;;5093886;28;20190;-59
2022/11/13 10:38:27;;;;;;;1.50;1.40;;;;;9.00;96424.00;;;;5093968;28;20209;-58
2022/11/13 10:41:06;;;;;;;0.90;0.90;;;;;9.10;96409.00;;;;5093684;28;20222;-59
2022/11/13 10:43:33;;;;;;;1.33;1.33;;;;;9.30;96392.00;;;;5076009;28;20202;-61
2022/11/13 10:46:02;;;;;;;0.83;0.83;;;;;9.60;96391.00;;;;5093878;28;20222;-59
2022/11/13 10:48:31;;;;;;;0.70;0.70;;;;;9.80;96393.00;;;;5093784;28;20210;-59
2022/11/13 10:51:00;;;;;;;1.50;1.40;;;;;9.80;96398.00;;;;5095318;28;20251;-59
2022/11/13 10:53:37;;;;;;;1.10;1.10;;;;;10.20;96387.00;;;;5097485;28;20194;-60
2022/11/13 10:56:14;;;;;;;1.27;1.27;;;;;10.60;96389.00;;;;5097631;28;20190;-61
2022/11/13 10:58:41;;;;;;;1.13;1.13;;;;;10.70;96384.00;;;;5096527;28;20627;-59
2022/11/13 11:01:20;;;;;;;1.30;1.27;;;;;11.20;96376.00;;;;5097139;28;20318;-59
2022/11/13 11:03:50;;;;;;;1.30;1.30;;;;;11.60;96355.00;;;;5097157;28;20198;-59
2022/11/13 11:06:17;;;;;;;1.13;1.13;;;;;11.40;96352.00;;;;5097043;28;20639;-59
2022/11/13 11:08:45;;;;;;;0.97;0.97;;;;;11.70;96347.00;;;;5097002;28;20203;-59
2022/11/13 11:14:19;;;;;;;3.37;1.97;;;;;12.70;96330.00;;;;5097097;28;20197;-59
2022/11/13 11:16:51;;;;;;;1.07;1.07;;;;;12.90;96321.00;;;;5097067;28;20205;-60
2022/11/13 11:19:20;;;;;;;1.50;1.40;;;;;13.10;96320.00;;;;5079036;28;20191;-60
2022/11/13 11:21:49;;;;;;;1.30;0.90;;;;;13.30;96315.00;;;;5097141;28;20225;-61
2022/11/13 11:24:21;;;;;;;1.20;1.20;;;;;13.70;96309.00;;;;5097058;28;20206;-59
2022/11/13 11:26:53;;;;;;;1.70;1.57;;;;;14.10;96311.00;;;;5096961;28;20195;-63